createdAt,value
2022-08-30T00:02:37.020Z,85.83
2022-08-30T00:05:25.717Z,85.94
2022-08-30T00:08:13.962Z,86.08
2022-08-30T00:11:02.209Z,86.41
2022-08-30T00:13:52.505Z,86.57
2022-08-30T00:16:39.933Z,86.95
2022-08-30T00:19:29.216Z,87.42
2022-08-30T00:25:24.734Z,88.59
2022-08-30T00:45:18.001Z,88.59
2022-08-30T00:48:13.604Z,89.10
2022-08-30T00:51:08.966Z,89.12
2022-08-30T00:53:58.676Z,89.40
2022-08-30T00:56:48.271Z,89.12
2022-08-30T00:59:36.483Z,89.36
2022-08-30T01:02:26.568Z,89.85
2022-08-30T01:08:21.561Z,90.70
2022-08-30T01:14:17.408Z,90.21
2022-08-30T01:17:05.003Z,89.92
2022-08-30T01:19:59.773Z,89.52
2022-08-30T01:22:59.253Z,89.42
2022-08-30T01:25:50.822Z,88.74
2022-08-30T01:28:38.469Z,88.29
2022-08-30T01:31:27.415Z,87.92
2022-08-30T01:37:33.171Z,87.15
2022-08-30T01:40:21.837Z,86.91
2022-08-30T01:43:09.861Z,87.15
2022-08-30T01:49:01.826Z,86.42
2022-08-30T01:51:49.509Z,86.35
2022-08-30T01:54:49.227Z,86.27
2022-08-30T01:57:38.672Z,86.14
2022-08-30T02:00:25.728Z,86.49
2022-08-30T02:03:14.196Z,86.35
2022-08-30T02:06:05.525Z,86.34
2022-08-30T02:08:53.954Z,86.02
2022-08-30T02:11:41.094Z,86.14
2022-08-30T02:14:30.146Z,86.29
2022-08-30T02:17:19.602Z,86.07
2022-08-30T02:20:08.460Z,85.92
2022-08-30T02:23:01.428Z,85.75
2022-08-30T02:28:55.770Z,85.80
2022-08-30T02:38:02.124Z,85.82
2022-08-30T02:41:00.951Z,86.17
2022-08-30T02:43:49.450Z,86.08
2022-08-30T02:46:36.644Z,85.98
2022-08-30T02:49:33.864Z,86.00
2022-08-30T02:55:26.758Z,85.98
2022-08-30T03:10:38.807Z,86.10
2022-08-30T03:16:32.229Z,86.02
2022-08-30T03:22:26.095Z,86.55
2022-08-30T03:25:14.687Z,86.37
2022-08-30T03:28:01.733Z,86.15
2022-08-30T03:30:49.341Z,86.08
2022-08-30T03:33:36.421Z,86.70
2022-08-30T03:39:29.584Z,87.70
2022-08-30T03:42:16.410Z,88.04
2022-08-30T03:45:05.251Z,88.66
2022-08-30T03:47:52.305Z,89.14
2022-08-30T03:50:40.743Z,89.94
2022-08-30T03:53:27.517Z,90.82
2022-08-30T03:56:16.466Z,91.03
2022-08-30T03:59:03.782Z,91.42
2022-08-30T04:01:50.671Z,91.16
2022-08-30T04:04:37.965Z,91.37
2022-08-30T04:07:25.082Z,90.58
2022-08-30T04:10:12.632Z,90.93
2022-08-30T04:13:02.947Z,91.39
2022-08-30T04:15:50.772Z,91.31
2022-08-30T04:18:38.838Z,91.10
2022-08-30T04:21:25.923Z,91.32
2022-08-30T04:24:13.878Z,90.91
2022-08-30T04:27:02.293Z,91.02
2022-08-30T04:29:53.024Z,91.23
2022-08-30T04:32:45.249Z,91.03
2022-08-30T04:35:32.753Z,91.21
2022-08-30T04:38:22.349Z,91.06
2022-08-30T04:41:15.679Z,90.88
2022-08-30T04:44:05.144Z,90.83
2022-08-30T04:46:55.319Z,90.87
2022-08-30T04:52:48.457Z,91.06
2022-08-30T04:55:37.148Z,90.66
2022-08-30T04:58:25.472Z,90.82
2022-08-30T05:01:15.110Z,90.46
2022-08-30T05:07:13.328Z,90.91
2022-08-30T05:13:07.747Z,90.61
2022-08-30T05:15:55.861Z,90.38
2022-08-30T05:18:43.700Z,90.75
2022-08-30T05:21:32.043Z,90.09
2022-08-30T05:24:20.228Z,91.05
2022-08-30T05:27:08.671Z,91.32
2022-08-30T05:29:58.431Z,91.67
2022-08-30T05:32:46.361Z,90.96
2022-08-30T05:35:36.863Z,90.82
2022-08-30T05:38:27.134Z,90.80
2022-08-30T05:41:14.344Z,90.35
2022-08-30T05:44:04.157Z,89.76
2022-08-30T05:46:51.450Z,89.02
2022-08-30T05:49:38.004Z,88.25
2022-08-30T05:52:30.434Z,88.41
2022-08-30T05:55:21.237Z,87.96
2022-08-30T05:58:08.272Z,87.76
2022-08-30T06:00:55.769Z,86.41
2022-08-30T06:03:45.088Z,86.58
2022-08-30T06:09:40.313Z,86.29
2022-08-30T06:12:28.544Z,84.56
2022-08-30T06:15:17.363Z,83.92
2022-08-30T06:21:23.943Z,83.35
2022-08-30T06:27:20.292Z,81.00
2022-08-30T06:33:17.497Z,80.61
2022-08-30T06:36:06.003Z,80.24
2022-08-30T06:38:54.539Z,80.86
2022-08-30T06:41:42.591Z,78.37
2022-08-30T06:48:14.871Z,79.43
2022-08-30T06:51:15.009Z,79.97
2022-08-30T06:54:03.454Z,79.82
2022-08-30T06:56:59.075Z,81.71
2022-08-30T06:59:48.746Z,80.43
2022-08-30T07:02:37.561Z,81.83
2022-08-30T07:05:25.382Z,82.23
2022-08-30T07:08:14.317Z,82.53
2022-08-30T07:11:01.149Z,81.54
2022-08-30T07:22:58.879Z,80.85
2022-08-30T07:25:56.917Z,81.00
2022-08-30T07:32:38.473Z,82.04
2022-08-30T07:53:20.338Z,83.22
2022-08-30T07:56:10.935Z,84.47
2022-08-30T07:58:58.614Z,84.60
2022-08-30T08:01:48.844Z,83.89
2022-08-30T08:04:40.051Z,82.08
2022-08-30T08:11:01.152Z,78.64
2022-08-30T08:13:53.521Z,76.80
2022-08-30T08:16:43.339Z,76.64
2022-08-30T08:19:32.682Z,75.66
2022-08-30T08:25:55.080Z,75.10
2022-08-30T08:28:42.287Z,74.52
2022-08-30T08:31:34.055Z,74.96
2022-08-30T08:34:36.458Z,73.83
2022-08-30T08:57:57.163Z,75.91
2022-08-30T09:00:52.154Z,76.70
2022-08-30T09:03:39.561Z,75.76
2022-08-30T09:06:49.061Z,75.85
2022-08-30T09:21:42.588Z,71.12
2022-08-30T09:34:45.033Z,64.29
2022-08-30T09:45:49.729Z,58.24
2022-08-30T10:46:41.496Z,48.72
2022-08-30T11:27:00.736Z,62.76
2022-08-30T11:29:56.757Z,60.22
2022-08-30T11:33:02.880Z,60.22
2022-08-30T11:36:04.193Z,60.28
2022-08-30T11:39:46.929Z,59.78
2022-08-30T11:46:55.373Z,59.09
2022-08-30T11:54:40.089Z,57.40
2022-08-30T11:58:20.366Z,59.91
2022-08-30T12:09:02.253Z,59.43
2022-08-30T12:12:00.330Z,58.22
2022-08-30T12:14:54.693Z,56.40
2022-08-30T12:18:20.185Z,58.11
2022-08-30T12:21:27.177Z,58.19
2022-08-30T12:24:21.442Z,58.31
2022-08-30T12:27:24.501Z,57.21
2022-08-30T12:30:14.291Z,58.40
2022-08-30T12:36:23.745Z,58.48
2022-08-30T12:42:22.797Z,58.34
2022-08-30T12:52:31.428Z,56.95
2022-08-30T12:59:03.515Z,56.53
2022-08-30T13:01:56.326Z,54.78
2022-08-30T13:04:58.820Z,52.67
2022-08-30T13:07:54.489Z,53.79
2022-08-30T13:11:32.644Z,52.91
2022-08-30T13:17:45.204Z,53.98
2022-08-30T13:20:32.610Z,53.83
2022-08-30T13:24:08.782Z,52.64
2022-08-30T13:27:02.059Z,52.14
2022-08-30T13:30:56.549Z,51.99
2022-08-30T13:58:29.852Z,54.25
2022-08-30T14:11:33.965Z,54.04
2022-08-30T14:15:06.091Z,53.64
2022-08-30T14:18:11.755Z,54.96
2022-08-30T14:21:18.173Z,54.95
2022-08-30T14:24:20.092Z,55.01
2022-08-30T14:27:09.162Z,54.82
2022-08-30T14:34:37.344Z,54.56
2022-08-30T14:37:24.502Z,55.06
2022-08-30T14:40:15.325Z,55.60
2022-08-30T14:43:02.098Z,55.55
2022-08-30T14:49:02.435Z,54.73
2022-08-30T14:51:53.188Z,54.50
2022-08-30T14:54:55.604Z,54.70
2022-08-30T14:57:51.861Z,54.46
2022-08-30T15:00:40.583Z,55.20
2022-08-30T15:03:29.188Z,55.96
2022-08-30T15:06:17.833Z,57.04
2022-08-30T15:09:11.719Z,57.31
2022-08-30T15:12:03.544Z,56.49
2022-08-30T15:14:51.110Z,56.92
2022-08-30T15:17:37.975Z,56.65
2022-08-30T15:20:27.632Z,56.45
2022-08-30T15:23:16.869Z,55.71
2022-08-30T15:26:08.120Z,55.09
2022-08-30T15:28:56.395Z,54.60
2022-08-30T15:31:45.019Z,55.36
2022-08-30T15:34:32.626Z,56.18
2022-08-30T15:37:23.072Z,55.72
2022-08-30T15:40:11.318Z,55.81
2022-08-30T15:42:59.960Z,55.87
2022-08-30T15:45:48.015Z,55.96
2022-08-30T15:52:07.935Z,56.96
2022-08-30T15:54:55.571Z,56.24
2022-08-30T15:57:43.025Z,56.32
2022-08-30T16:00:31.342Z,55.87
2022-08-30T16:03:18.638Z,55.84
2022-08-30T16:06:12.673Z,54.87
2022-08-30T16:09:01.172Z,54.17
2022-08-30T16:11:50.482Z,52.52
2022-08-30T16:14:43.842Z,51.85
2022-08-30T16:17:33.065Z,50.07
2022-08-30T16:20:20.425Z,49.32
2022-08-30T16:23:15.629Z,49.27
2022-08-30T16:26:04.279Z,48.53
2022-08-30T16:28:52.726Z,46.86
2022-08-30T16:34:49.911Z,47.48
2022-08-30T16:37:38.545Z,48.69
2022-08-30T16:40:27.154Z,47.93
2022-08-30T16:43:15.811Z,47.72
2022-08-30T16:46:03.406Z,48.14
2022-08-30T16:48:50.050Z,47.10
2022-08-30T16:51:39.533Z,47.06
2022-08-30T16:54:27.296Z,46.72
2022-08-30T16:57:14.122Z,46.46
2022-08-30T17:06:13.317Z,47.52
2022-08-30T17:09:01.956Z,47.46
2022-08-30T17:11:50.399Z,47.14
2022-08-30T17:14:39.380Z,46.37
2022-08-30T17:17:30.199Z,45.72
2022-08-30T17:20:18.912Z,46.37
2022-08-30T17:23:06.559Z,46.86
2022-08-30T17:25:56.863Z,48.18
2022-08-30T17:28:44.289Z,48.36
2022-08-30T17:31:32.154Z,49.20
2022-08-30T17:34:24.129Z,49.42
2022-08-30T17:37:14.047Z,50.23
2022-08-30T18:02:43.035Z,51.73
